Station Historical Data
Daily Summary for September 15, 2017 Units:  English    Metric   Both
« Previous Day
Next Day »
Daily Weekly Monthly Yearly Custom
  High: Low: Average:
Temperature: 73.1 °F 57.2 °F 63.7 °F
Dew Point: 57.5 °F 52.2 °F 53.9 °F
Humidity: 85 % 52 % 72 %
Wind Speed: 14.0 mph 0.0 mph 1 mph
Wind Gust: 14.0 mph - -
Wind:- - SW
Pressure: 29.94 in 29.88 in -
Precipitation: 0.00 in    
Historical Graphs
 
 
Tabular Data for September 15, 2017
Time Temperature Dew Point Pressure Wind Wind Speed Wind Gust Humidity Rainfall Rate (Hourly) solar
00:02 57.5 °F 52.7 °F 29.89 in Calm     84 % 0.00 in 0.00 W/m2
00:07 57.4 °F 52.6 °F 29.89 in Calm     84 % 0.00 in 0.00 W/m2
00:11 57.3 °F 52.5 °F 29.89 in Calm     84 % 0.00 in 0.00 W/m2
00:16 57.3 °F 52.5 °F 29.89 in Calm     84 % 0.00 in 0.00 W/m2
00:21 57.3 °F 52.5 °F 29.88 in Calm     84 % 0.00 in 0.00 W/m2
00:22 57.3 °F 52.5 °F 29.88 in Calm     84 % 0.00 in 0.00 W/m2
00:27 57.3 °F 52.5 °F 29.89 in SSE 4.0 mph 4.0 mph 84 % 0.00 in 0.00 W/m2
00:32 57.3 °F 52.5 °F 29.89 in SSE 5.0 mph 5.0 mph 84 % 0.00 in 0.00 W/m2
00:37 57.3 °F 52.5 °F 29.89 in Calm   4.0 mph 84 % 0.00 in 0.00 W/m2
00:42 57.3 °F 52.5 °F 29.89 in Calm     84 % 0.00 in 0.00 W/m2
00:48 57.3 °F 52.5 °F 29.89 in Calm   5.0 mph 84 % 0.00 in 0.00 W/m2
00:53 57.3 °F 52.5 °F 29.89 in Calm   2.0 mph 84 % 0.00 in 0.00 W/m2
00:58 57.3 °F 52.5 °F 29.89 in SSE 2.0 mph 6.0 mph 84 % 0.00 in 0.00 W/m2
01:03 57.4 °F 52.6 °F 29.89 in Calm   4.0 mph 84 % 0.00 in 0.00 W/m2
01:08 57.4 °F 52.6 °F 29.89 in Calm   4.0 mph 84 % 0.00 in 0.00 W/m2
01:13 57.5 °F 52.7 °F 29.89 in Calm   5.0 mph 84 % 0.00 in 0.00 W/m2
01:18 57.6 °F 52.8 °F 29.88 in Calm   4.0 mph 84 % 0.00 in 0.00 W/m2
01:23 57.6 °F 52.8 °F 29.88 in Calm   6.0 mph 84 % 0.00 in 0.00 W/m2
01:28 57.7 °F 52.9 °F 29.89 in SSE 5.0 mph 6.0 mph 84 % 0.00 in 0.00 W/m2
01:33 57.7 °F 52.9 °F 29.89 in Calm   6.0 mph 84 % 0.00 in 0.00 W/m2
01:38 57.7 °F 52.9 °F 29.89 in Calm   7.0 mph 84 % 0.00 in 0.00 W/m2
01:43 57.7 °F 52.9 °F 29.89 in SSE 7.0 mph 7.0 mph 84 % 0.00 in 0.00 W/m2
01:48 57.7 °F 52.9 °F 29.89 in SSE 5.0 mph 5.0 mph 84 % 0.00 in 0.00 W/m2
01:53 57.7 °F 52.9 °F 29.89 in Calm   6.0 mph 84 % 0.00 in 0.00 W/m2
01:58 57.8 °F 53.0 °F 29.89 in Calm   5.0 mph 84 % 0.00 in 0.00 W/m2
02:03 57.8 °F 53.0 °F 29.89 in Calm   4.0 mph 84 % 0.00 in 0.00 W/m2
02:08 57.7 °F 52.9 °F 29.89 in Calm   4.0 mph 84 % 0.00 in 0.00 W/m2
02:13 57.7 °F 52.9 °F 29.89 in Calm     84 % 0.00 in 0.00 W/m2
02:18 57.7 °F 52.9 °F 29.89 in Calm     84 % 0.00 in 0.00 W/m2
02:23 57.7 °F 52.9 °F 29.89 in Calm     84 % 0.00 in 0.00 W/m2
02:28 57.7 °F 52.9 °F 29.89 in Calm     84 % 0.00 in 0.00 W/m2
02:33 57.8 °F 53.0 °F 29.89 in Calm     84 % 0.00 in 0.00 W/m2
02:38 57.8 °F 53.0 °F 29.89 in Calm     84 % 0.00 in 0.00 W/m2
02:43 57.9 °F 53.1 °F 29.89 in SSE 4.0 mph 4.0 mph 84 % 0.00 in 0.00 W/m2
02:48 57.9 °F 53.1 °F 29.89 in SSE 2.0 mph 4.0 mph 84 % 0.00 in 0.00 W/m2
02:53 57.9 °F 53.1 °F 29.89 in Calm   2.0 mph 84 % 0.00 in 0.00 W/m2
02:58 57.9 °F 53.1 °F 29.89 in Calm     84 % 0.00 in 0.00 W/m2
03:03 57.8 °F 53.0 °F 29.89 in Calm     84 % 0.00 in 0.00 W/m2
03:08 57.8 °F 53.0 °F 29.89 in Calm     84 % 0.00 in 0.00 W/m2
03:13 57.7 °F 52.9 °F 29.89 in Calm     84 % 0.00 in 0.00 W/m2
03:18 57.7 °F 52.9 °F 29.89 in Calm     84 % 0.00 in 0.00 W/m2
03:23 57.6 °F 52.8 °F 29.89 in Calm     84 % 0.00 in 0.00 W/m2
03:28 57.5 °F 52.7 °F 29.89 in Calm     84 % 0.00 in 0.00 W/m2
03:33 57.5 °F 52.7 °F 29.89 in Calm     84 % 0.00 in 0.00 W/m2
03:38 57.4 °F 52.6 °F 29.89 in Calm     84 % 0.00 in 0.00 W/m2
03:43 57.3 °F 52.5 °F 29.89 in Calm     84 % 0.00 in 0.00 W/m2
03:48 57.2 °F 52.4 °F 29.89 in Calm     84 % 0.00 in 0.00 W/m2
03:53 57.2 °F 52.4 °F 29.89 in Calm     84 % 0.00 in 0.00 W/m2
03:58 57.2 °F 52.7 °F 29.89 in Calm     85 % 0.00 in 0.00 W/m2
04:03 57.2 °F 52.7 °F 29.89 in Calm   1.0 mph 85 % 0.00 in 0.00 W/m2
04:08 57.2 °F 52.7 °F 29.89 in Calm     85 % 0.00 in 0.00 W/m2
04:13 57.2 °F 52.7 °F 29.89 in Calm     85 % 0.00 in 0.00 W/m2
04:18 57.2 °F 52.7 °F 29.89 in Calm     85 % 0.00 in 0.00 W/m2
04:23 57.3 °F 52.8 °F 29.89 in Calm     85 % 0.00 in 0.00 W/m2
04:28 57.3 °F 52.8 °F 29.89 in Calm     85 % 0.00 in 0.00 W/m2
04:33 57.4 °F 52.9 °F 29.89 in Calm     85 % 0.00 in 0.00 W/m2
04:38 57.5 °F 52.7 °F 29.89 in Calm     84 % 0.00 in 0.00 W/m2
04:43 57.6 °F 52.8 °F 29.89 in Calm     84 % 0.00 in 0.00 W/m2
04:48 57.7 °F 52.9 °F 29.89 in Calm     84 % 0.00 in 0.00 W/m2
04:53 57.8 °F 53.0 °F 29.89 in Calm     84 % 0.00 in 0.00 W/m2
04:58 57.9 °F 53.1 °F 29.89 in Calm     84 % 0.00 in 0.00 W/m2
05:03 57.9 °F 53.1 °F 29.89 in Calm     84 % 0.00 in 0.00 W/m2
05:08 58.0 °F 53.2 °F 29.89 in Calm     84 % 0.00 in 0.00 W/m2
05:13 58.1 °F 53.3 °F 29.89 in Calm     84 % 0.00 in 0.00 W/m2
05:18 58.1 °F 53.3 °F 29.89 in Calm     84 % 0.00 in 0.00 W/m2
05:23 58.2 °F 53.1 °F 29.89 in Calm     83 % 0.00 in 0.00 W/m2
05:28 58.2 °F 53.4 °F 29.89 in Calm     84 % 0.00 in 0.00 W/m2
05:33 58.3 °F 53.5 °F 29.89 in Calm     84 % 0.00 in 0.00 W/m2
05:38 58.3 °F 53.2 °F 29.90 in Calm     83 % 0.00 in 0.00 W/m2
05:43 58.4 °F 53.3 °F 29.90 in Calm     83 % 0.00 in 0.00 W/m2
05:48 58.4 °F 53.3 °F 29.90 in Calm     83 % 0.00 in 0.00 W/m2
05:53 58.4 °F 53.3 °F 29.89 in Calm     83 % 0.00 in 0.00 W/m2
05:58 58.4 °F 53.3 °F 29.89 in Calm     83 % 0.00 in 0.00 W/m2
06:03 58.4 °F 53.3 °F 29.90 in Calm     83 % 0.00 in 0.00 W/m2
06:08 58.4 °F 53.3 °F 29.90 in Calm     83 % 0.00 in 0.00 W/m2
06:13 58.4 °F 52.9 °F 29.90 in Calm     82 % 0.00 in 0.00 W/m2
06:18 58.4 °F 52.9 °F 29.90 in Calm     82 % 0.00 in 0.00 W/m2
06:23 58.4 °F 52.9 °F 29.90 in Calm     82 % 0.00 in 0.00 W/m2
06:28 58.4 °F 52.9 °F 29.90 in Calm     82 % 0.00 in 0.00 W/m2
06:33 58.4 °F 52.9 °F 29.90 in Calm     82 % 0.00 in 0.00 W/m2
06:38 58.4 °F 52.9 °F 29.90 in Calm     82 % 0.00 in 0.00 W/m2
06:44 58.4 °F 52.6 °F 29.91 in Calm     81 % 0.00 in 5.00 W/m2
06:49 58.4 °F 52.6 °F 29.91 in Calm     81 % 0.00 in 5.00 W/m2
06:54 58.2 °F 52.4 °F 29.91 in Calm     81 % 0.00 in 7.00 W/m2
06:59 58.2 °F 52.7 °F 29.91 in Calm     82 % 0.00 in 11.00 W/m2
07:04 58.0 °F 52.5 °F 29.91 in Calm     82 % 0.00 in 16.00 W/m2
07:09 58.0 °F 52.5 °F 29.91 in Calm     82 % 0.00 in 21.00 W/m2
07:14 57.8 °F 52.3 °F 29.91 in Calm     82 % 0.00 in 23.00 W/m2
07:19 57.7 °F 52.6 °F 29.91 in Calm     83 % 0.00 in 28.00 W/m2
07:24 57.7 °F 52.6 °F 29.91 in SSE 1.0 mph 2.0 mph 83 % 0.00 in 33.00 W/m2
07:29 57.6 °F 52.5 °F 29.91 in SSE 2.0 mph 5.0 mph 83 % 0.00 in 35.00 W/m2
07:34 57.6 °F 52.5 °F 29.91 in SSE 4.0 mph 6.0 mph 83 % 0.00 in 74.00 W/m2
07:39 57.5 °F 52.4 °F 29.92 in SSE 4.0 mph 7.0 mph 83 % 0.00 in 88.00 W/m2
07:44 57.5 °F 52.4 °F 29.91 in Calm   5.0 mph 83 % 0.00 in 104.00 W/m2
07:49 57.5 °F 52.4 °F 29.91 in SSE 1.0 mph 4.0 mph 83 % 0.00 in 121.00 W/m2
07:54 57.5 °F 52.4 °F 29.92 in Calm   6.0 mph 83 % 0.00 in 144.00 W/m2
07:59 57.5 °F 52.4 °F 29.92 in Calm   4.0 mph 83 % 0.00 in 162.00 W/m2
08:04 57.5 °F 52.4 °F 29.92 in Calm     83 % 0.00 in 186.00 W/m2
08:09 57.6 °F 52.8 °F 29.92 in Calm   4.0 mph 84 % 0.00 in 206.00 W/m2
08:14 57.7 °F 52.9 °F 29.92 in Calm   4.0 mph 84 % 0.00 in 218.00 W/m2
08:19 57.8 °F 53.0 °F 29.92 in Calm   7.0 mph 84 % 0.00 in 239.00 W/m2
08:24 57.9 °F 53.1 °F 29.92 in Calm   6.0 mph 84 % 0.00 in 253.00 W/m2
08:29 58.0 °F 53.2 °F 29.92 in Calm   6.0 mph 84 % 0.00 in 267.00 W/m2
08:34 58.2 °F 53.4 °F 29.92 in Calm   5.0 mph 84 % 0.00 in 285.00 W/m2
08:39 58.4 °F 53.6 °F 29.92 in Calm   6.0 mph 84 % 0.00 in 111.00 W/m2
08:44 58.6 °F 53.5 °F 29.92 in SSE 1.0 mph 6.0 mph 83 % 0.00 in 169.00 W/m2
08:49 58.8 °F 53.7 °F 29.92 in Calm   6.0 mph 83 % 0.00 in 334.00 W/m2
08:54 59.0 °F 53.8 °F 29.92 in Calm   6.0 mph 83 % 0.00 in 346.00 W/m2
08:59 59.2 °F 53.7 °F 29.92 in Calm   1.0 mph 82 % 0.00 in 367.00 W/m2
09:00 59.2 °F 54.0 °F 29.92 in Calm   1.0 mph 83 % 0.00 in 367.00 W/m2
09:05 59.4 °F 53.9 °F 29.92 in SE 5.0 mph 5.0 mph 82 % 0.00 in 385.00 W/m2
09:10 59.6 °F 54.1 °F 29.93 in Calm   4.0 mph 82 % 0.00 in 396.00 W/m2
09:15 59.8 °F 54.3 °F 29.93 in Calm     82 % 0.00 in 418.00 W/m2
09:20 60.0 °F 54.5 °F 29.93 in Calm     82 % 0.00 in 432.00 W/m2
09:25 60.1 °F 54.3 °F 29.93 in Calm     81 % 0.00 in 448.00 W/m2
09:30 60.3 °F 54.1 °F 29.93 in Calm     80 % 0.00 in 466.00 W/m2
09:35 60.7 °F 54.5 °F 29.93 in Calm     80 % 0.00 in 478.00 W/m2
09:40 61.0 °F 54.8 °F 29.93 in SE 2.0 mph 5.0 mph 80 % 0.00 in 489.00 W/m2
09:45 61.3 °F 55.1 °F 29.94 in Calm   4.0 mph 80 % 0.00 in 506.00 W/m2
09:50 61.5 °F 54.6 °F 29.93 in SE 1.0 mph 2.0 mph 78 % 0.00 in 522.00 W/m2
09:55 61.8 °F 54.5 °F 29.93 in Calm     77 % 0.00 in 534.00 W/m2
10:00 62.1 °F 54.8 °F 29.94 in Calm   6.0 mph 77 % 0.00 in 548.00 W/m2
10:05 62.5 °F 55.6 °F 29.94 in SE 2.0 mph 4.0 mph 78 % 0.00 in 559.00 W/m2
10:10 63.0 °F 55.7 °F 29.94 in SE 2.0 mph 6.0 mph 77 % 0.00 in 566.00 W/m2
10:15 63.4 °F 56.1 °F 29.94 in SSE 2.0 mph 7.0 mph 77 % 0.00 in 617.00 W/m2
10:20 63.7 °F 56.4 °F 29.94 in SSE 2.0 mph 5.0 mph 77 % 0.00 in 617.00 W/m2
10:25 64.0 °F 56.7 °F 29.94 in SSE 2.0 mph 6.0 mph 77 % 0.00 in 626.00 W/m2
10:30 64.2 °F 56.5 °F 29.94 in Calm   5.0 mph 76 % 0.00 in 617.00 W/m2
10:35 64.4 °F 56.7 °F 29.94 in SSE 4.0 mph 6.0 mph 76 % 0.00 in 638.00 W/m2
10:40 64.6 °F 56.5 °F 29.94 in Calm   4.0 mph 75 % 0.00 in 643.00 W/m2
10:45 64.9 °F 56.8 °F 29.94 in South 4.0 mph 4.0 mph 75 % 0.00 in 650.00 W/m2
10:50 65.1 °F 56.6 °F 29.94 in SSW 2.0 mph 5.0 mph 74 % 0.00 in 666.00 W/m2
10:55 65.3 °F 56.4 °F 29.94 in SW 3.0 mph 6.0 mph 73 % 0.00 in 671.00 W/m2
11:00 65.4 °F 56.5 °F 29.94 in West 5.0 mph 7.0 mph 73 % 0.00 in 680.00 W/m2
11:05 65.5 °F 56.2 °F 29.94 in Calm   7.0 mph 72 % 0.00 in 689.00 W/m2
11:10 65.7 °F 56.8 °F 29.94 in Calm   5.0 mph 73 % 0.00 in 714.00 W/m2
11:15 65.9 °F 56.2 °F 29.94 in Calm   4.0 mph 71 % 0.00 in 719.00 W/m2
11:20 66.2 °F 56.5 °F 29.94 in West 4.0 mph 6.0 mph 71 % 0.00 in 733.00 W/m2
11:25 66.6 °F 56.9 °F 29.94 in Calm   7.0 mph 71 % 0.00 in 765.00 W/m2
11:30 66.8 °F 56.7 °F 29.94 in WNW 1.0 mph 5.0 mph 70 % 0.00 in 789.00 W/m2
11:35 67.2 °F 56.3 °F 29.94 in Calm   6.0 mph 68 % 0.00 in 788.00 W/m2
11:40 67.6 °F 56.7 °F 29.93 in WNW 1.0 mph 8.0 mph 68 % 0.00 in 784.00 W/m2
11:46 67.9 °F 57.0 °F 29.93 in West 8.0 mph 8.0 mph 68 % 0.00 in 796.00 W/m2
11:51 68.3 °F 56.5 °F 29.94 in Calm   8.0 mph 66 % 0.00 in 795.00 W/m2
11:56 68.5 °F 56.3 °F 29.93 in Calm   7.0 mph 65 % 0.00 in 443.00 W/m2
12:01 68.9 °F 57.5 °F 29.93 in SW 1.0 mph 11.0 mph 67 % 0.00 in 798.00 W/m2
12:06 69.3 °F 56.2 °F 29.93 in Calm   9.0 mph 63 % 0.00 in 777.00 W/m2
12:11 69.6 °F 56.9 °F 29.93 in SW 2.0 mph 6.0 mph 64 % 0.00 in 788.00 W/m2
12:16 70.1 °F 56.5 °F 29.93 in SSW 4.0 mph 8.0 mph 62 % 0.00 in 803.00 W/m2
12:21 70.8 °F 56.2 °F 29.93 in Calm   7.0 mph 60 % 0.00 in 819.00 W/m2
12:26 71.2 °F 56.6 °F 29.93 in SSW 1.0 mph 7.0 mph 60 % 0.00 in 798.00 W/m2
12:31 71.4 °F 56.3 °F 29.93 in WSW 2.0 mph 9.0 mph 59 % 0.00 in 831.00 W/m2
12:36 71.4 °F 56.3 °F 29.93 in Calm     59 % 0.00 in 826.00 W/m2
12:41 71.5 °F 56.4 °F 29.93 in Calm   5.0 mph 59 % 0.00 in 824.00 W/m2
12:46 71.5 °F 56.4 °F 29.93 in SW 1.0 mph 3.0 mph 59 % 0.00 in 824.00 W/m2
12:51 71.7 °F 56.2 °F 29.93 in Calm     58 % 0.00 in 795.00 W/m2
12:56 72.0 °F 56.4 °F 29.93 in Calm   2.0 mph 58 % 0.00 in 204.00 W/m2
13:01 72.1 °F 56.5 °F 29.93 in Calm   1.0 mph 58 % 0.00 in 183.00 W/m2
13:06 72.1 °F 56.5 °F 29.92 in SW 5.0 mph 7.0 mph 58 % 0.00 in 831.00 W/m2
13:11 72.2 °F 56.1 °F 29.92 in SW 3.0 mph 9.0 mph 57 % 0.00 in 821.00 W/m2
13:16 72.6 °F 56.5 °F 29.92 in Calm   3.0 mph 57 % 0.00 in 812.00 W/m2
13:21 72.9 °F 56.3 °F 29.92 in SSW 3.0 mph 3.0 mph 56 % 0.00 in 795.00 W/m2
13:26 72.8 °F 56.2 °F 29.92 in SW 4.0 mph 6.0 mph 56 % 0.00 in 796.00 W/m2
13:31 72.7 °F 56.6 °F 29.92 in WSW 3.0 mph 5.0 mph 57 % 0.00 in 819.00 W/m2
13:36 72.7 °F 55.6 °F 29.92 in WSW 4.0 mph 5.0 mph 55 % 0.00 in 805.00 W/m2
13:41 72.4 °F 55.3 °F 29.92 in Calm   6.0 mph 55 % 0.00 in 789.00 W/m2
13:46 72.3 °F 56.2 °F 29.92 in Calm   7.0 mph 57 % 0.00 in 798.00 W/m2
13:48 72.4 °F 56.3 °F 29.92 in SW 5.0 mph 9.0 mph 57 % 0.00 in 789.00 W/m2
13:53 72.8 °F 56.2 °F 29.91 in WSW 9.0 mph 9.0 mph 56 % 0.00 in 782.00 W/m2
13:58 72.8 °F 55.2 °F 29.91 in WSW 2.0 mph 2.0 mph 54 % 0.00 in 784.00 W/m2
14:03 72.5 °F 55.4 °F 29.91 in Calm   10.0 mph 55 % 0.00 in 775.00 W/m2
14:08 72.6 °F 55.0 °F 29.91 in Calm   9.0 mph 54 % 0.00 in 758.00 W/m2
14:13 72.7 °F 55.1 °F 29.92 in WSW 10.0 mph 14.0 mph 54 % 0.00 in 759.00 W/m2
14:18 72.8 °F 55.2 °F 29.92 in Calm   7.0 mph 54 % 0.00 in 751.00 W/m2
14:23 72.9 °F 54.8 °F 29.91 in Calm   5.0 mph 53 % 0.00 in 737.00 W/m2
14:28 73.0 °F 54.4 °F 29.91 in Calm   2.0 mph 52 % 0.00 in 738.00 W/m2
14:33 73.0 °F 54.4 °F 29.91 in Calm   7.0 mph 52 % 0.00 in 731.00 W/m2
14:38 72.9 °F 54.8 °F 29.91 in Calm   8.0 mph 53 % 0.00 in 735.00 W/m2
14:43 72.8 °F 55.2 °F 29.91 in WSW 4.0 mph 8.0 mph 54 % 0.00 in 722.00 W/m2
14:48 73.0 °F 54.9 °F 29.91 in WSW 14.0 mph 14.0 mph 53 % 0.00 in 694.00 W/m2
14:53 73.1 °F 55.0 °F 29.91 in Calm   10.0 mph 53 % 0.00 in 686.00 W/m2
14:58 72.9 °F 54.8 °F 29.91 in Calm   11.0 mph 53 % 0.00 in 693.00 W/m2
15:03 72.7 °F 54.6 °F 29.91 in Calm   6.0 mph 53 % 0.00 in 693.00 W/m2
15:08 72.6 °F 55.0 °F 29.91 in West 6.0 mph 12.0 mph 54 % 0.00 in 726.00 W/m2
15:13 72.7 °F 54.6 °F 29.90 in Calm   6.0 mph 53 % 0.00 in 731.00 W/m2
15:18 72.8 °F 54.7 °F 29.90 in West 1.0 mph 9.0 mph 53 % 0.00 in 682.00 W/m2
15:24 72.7 °F 54.6 °F 29.90 in Calm   12.0 mph 53 % 0.00 in 619.00 W/m2
15:29 72.6 °F 55.0 °F 29.90 in Calm   6.0 mph 54 % 0.00 in 654.00 W/m2
15:34 72.7 °F 55.1 °F 29.90 in WSW 4.0 mph 7.0 mph 54 % 0.00 in 635.00 W/m2
15:39 72.8 °F 55.2 °F 29.90 in Calm   8.0 mph 54 % 0.00 in 125.00 W/m2
15:44 72.8 °F 54.7 °F 29.90 in Calm   9.0 mph 53 % 0.00 in 529.00 W/m2
15:49 72.6 °F 54.5 °F 29.90 in WNW 5.0 mph 6.0 mph 53 % 0.00 in 564.00 W/m2
15:54 72.5 °F 54.4 °F 29.90 in Calm   3.0 mph 53 % 0.00 in 548.00 W/m2
15:59 72.4 °F 54.3 °F 29.90 in Calm   7.0 mph 53 % 0.00 in 531.00 W/m2
16:04 72.3 °F 54.7 °F 29.89 in Calm   8.0 mph 54 % 0.00 in 512.00 W/m2
16:09 72.3 °F 54.7 °F 29.90 in WNW 1.0 mph 4.0 mph 54 % 0.00 in 501.00 W/m2
16:14 72.3 °F 54.7 °F 29.89 in West 5.0 mph 7.0 mph 54 % 0.00 in 490.00 W/m2
16:19 72.2 °F 54.7 °F 29.89 in WNW 3.0 mph 8.0 mph 54 % 0.00 in 475.00 W/m2
16:24 72.1 °F 54.6 °F 29.89 in Calm   11.0 mph 54 % 0.00 in 464.00 W/m2
16:29 72.1 °F 54.6 °F 29.89 in West 7.0 mph 9.0 mph 54 % 0.00 in 448.00 W/m2
16:34 72.1 °F 54.6 °F 29.89 in West 4.0 mph 7.0 mph 54 % 0.00 in 420.00 W/m2
16:39 72.2 °F 54.7 °F 29.89 in West 4.0 mph 12.0 mph 54 % 0.00 in 413.00 W/m2
16:44 72.2 °F 54.7 °F 29.89 in Calm   5.0 mph 54 % 0.00 in 403.00 W/m2
16:49 72.2 °F 54.1 °F 29.89 in Calm   6.0 mph 53 % 0.00 in 383.00 W/m2
16:54 72.1 °F 54.6 °F 29.89 in WNW 5.0 mph 6.0 mph 54 % 0.00 in 362.00 W/m2
17:04 71.8 °F 54.3 °F 29.89 in WNW 4.0 mph 5.0 mph 54 % 0.00 in 346.00 W/m2
17:09 71.7 °F 54.2 °F 29.89 in Calm   7.0 mph 54 % 0.00 in 329.00 W/m2
17:14 71.7 °F 54.2 °F 29.90 in WNW 2.0 mph 6.0 mph 54 % 0.00 in 301.00 W/m2
17:19 71.7 °F 54.2 °F 29.90 in Calm   9.0 mph 54 % 0.00 in 290.00 W/m2
17:24 71.6 °F 54.6 °F 29.90 in Calm   6.0 mph 55 % 0.00 in 281.00 W/m2
17:29 71.5 °F 54.5 °F 29.90 in WNW 4.0 mph 7.0 mph 55 % 0.00 in 258.00 W/m2
17:34 71.5 °F 54.5 °F 29.90 in Calm   6.0 mph 55 % 0.00 in 243.00 W/m2
17:39 71.4 °F 54.4 °F 29.90 in Calm   8.0 mph 55 % 0.00 in 221.00 W/m2
17:44 71.3 °F 54.3 °F 29.90 in WNW 1.0 mph 6.0 mph 55 % 0.00 in 209.00 W/m2
17:49 71.1 °F 54.6 °F 29.90 in Calm   7.0 mph 56 % 0.00 in 192.00 W/m2
17:54 71.0 °F 54.5 °F 29.90 in WNW 2.0 mph 5.0 mph 56 % 0.00 in 176.00 W/m2
17:59 70.8 °F 54.3 °F 29.90 in WNW 3.0 mph 7.0 mph 56 % 0.00 in 156.00 W/m2
18:04 70.6 °F 54.2 °F 29.90 in Calm   5.0 mph 56 % 0.00 in 141.00 W/m2
18:09 70.5 °F 55.0 °F 29.90 in Calm   6.0 mph 58 % 0.00 in 121.00 W/m2
18:14 70.3 °F 54.8 °F 29.90 in West 3.0 mph 4.0 mph 58 % 0.00 in 102.00 W/m2
18:19 70.2 °F 54.8 °F 29.90 in West 3.0 mph 6.0 mph 58 % 0.00 in 88.00 W/m2
18:24 70.1 °F 55.1 °F 29.90 in West 6.0 mph 7.0 mph 59 % 0.00 in 74.00 W/m2
18:29 69.9 °F 54.9 °F 29.90 in West 3.0 mph 3.0 mph 59 % 0.00 in 60.00 W/m2
18:34 69.7 °F 54.3 °F 29.90 in Calm   6.0 mph 58 % 0.00 in 47.00 W/m2
18:39 69.6 °F 54.2 °F 29.90 in Calm   5.0 mph 58 % 0.00 in 39.00 W/m2
18:44 69.5 °F 54.6 °F 29.90 in West 3.0 mph 5.0 mph 59 % 0.00 in 30.00 W/m2
18:49 69.2 °F 54.7 °F 29.90 in West 1.0 mph 4.0 mph 60 % 0.00 in 23.00 W/m2
18:54 69.0 °F 54.5 °F 29.90 in Calm   1.0 mph 60 % 0.00 in 18.00 W/m2
18:59 68.8 °F 54.4 °F 29.90 in Calm   1.0 mph 60 % 0.00 in 14.00 W/m2
19:04 68.7 °F 54.3 °F 29.90 in Calm   3.0 mph 60 % 0.00 in 11.00 W/m2
19:09 68.5 °F 54.5 °F 29.90 in Calm   1.0 mph 61 % 0.00 in 7.00 W/m2
19:14 68.3 °F 54.3 °F 29.90 in Calm   1.0 mph 61 % 0.00 in 5.00 W/m2
19:19 68.1 °F 54.6 °F 29.90 in Calm   1.0 mph 62 % 0.00 in 0.00 W/m2
19:24 67.8 °F 54.3 °F 29.90 in Calm     62 % 0.00 in 0.00 W/m2
19:27 67.6 °F 54.1 °F 29.89 in Calm     62 % 0.00 in 0.00 W/m2
19:32 67.0 °F 54.0 °F 29.90 in Calm     63 % 0.00 in 0.00 W/m2
19:37 66.5 °F 54.0 °F 29.90 in Calm     64 % 0.00 in 0.00 W/m2
19:42 66.2 °F 53.7 °F 29.90 in Calm     64 % 0.00 in 0.00 W/m2
19:47 65.8 °F 53.7 °F 29.90 in Calm     65 % 0.00 in 0.00 W/m2
19:52 65.5 °F 53.4 °F 29.90 in Calm     65 % 0.00 in 0.00 W/m2
19:57 65.0 °F 53.4 °F 29.90 in Calm     66 % 0.00 in 0.00 W/m2
20:02 64.6 °F 53.4 °F 29.90 in Calm     67 % 0.00 in 0.00 W/m2
20:07 64.4 °F 53.2 °F 29.90 in Calm     67 % 0.00 in 0.00 W/m2
20:13 64.3 °F 53.1 °F 29.91 in Calm     67 % 0.00 in 0.00 W/m2
20:18 64.1 °F 53.3 °F 29.90 in Calm     68 % 0.00 in 0.00 W/m2
20:23 64.1 °F 53.3 °F 29.91 in Calm     68 % 0.00 in 0.00 W/m2
20:24 64.0 °F 53.2 °F 29.91 in Calm     68 % 0.00 in 0.00 W/m2
20:29 63.9 °F 53.1 °F 29.91 in Calm     68 % 0.00 in 0.00 W/m2
20:35 63.9 °F 53.1 °F 29.91 in Calm     68 % 0.00 in 0.00 W/m2
20:40 63.7 °F 53.3 °F 29.91 in West 3.0 mph 4.0 mph 69 % 0.00 in 0.00 W/m2
20:45 63.4 °F 53.1 °F 29.91 in West 1.0 mph 5.0 mph 69 % 0.00 in 0.00 W/m2
20:50 63.2 °F 53.3 °F 29.91 in Calm   1.0 mph 70 % 0.00 in 0.00 W/m2
20:55 63.1 °F 53.2 °F 29.91 in Calm   1.0 mph 70 % 0.00 in 0.00 W/m2
21:00 62.9 °F 53.0 °F 29.91 in Calm   1.0 mph 70 % 0.00 in 0.00 W/m2
21:05 62.8 °F 53.3 °F 29.91 in West 3.0 mph 4.0 mph 71 % 0.00 in 0.00 W/m2
21:10 62.7 °F 53.2 °F 29.91 in West 1.0 mph 4.0 mph 71 % 0.00 in 0.00 W/m2
21:15 62.7 °F 53.2 °F 29.90 in West 1.0 mph 5.0 mph 71 % 0.00 in 0.00 W/m2
21:20 62.7 °F 53.2 °F 29.90 in Calm   1.0 mph 71 % 0.00 in 0.00 W/m2
21:25 62.7 °F 53.2 °F 29.90 in Calm   1.0 mph 71 % 0.00 in 0.00 W/m2
21:30 62.7 °F 53.2 °F 29.90 in Calm   4.0 mph 71 % 0.00 in 0.00 W/m2
21:35 62.7 °F 53.2 °F 29.90 in Calm   1.0 mph 71 % 0.00 in 0.00 W/m2
21:40 62.7 °F 53.2 °F 29.90 in Calm   1.0 mph 71 % 0.00 in 0.00 W/m2
21:45 62.6 °F 53.1 °F 29.90 in Calm   1.0 mph 71 % 0.00 in 0.00 W/m2
21:50 62.4 °F 53.3 °F 29.90 in West 2.0 mph 3.0 mph 72 % 0.00 in 0.00 W/m2
21:55 62.3 °F 53.2 °F 29.91 in Calm   3.0 mph 72 % 0.00 in 0.00 W/m2
22:00 62.2 °F 53.1 °F 29.90 in West 3.0 mph 5.0 mph 72 % 0.00 in 0.00 W/m2
22:05 62.0 °F 52.9 °F 29.91 in West 2.0 mph 5.0 mph 72 % 0.00 in 0.00 W/m2
22:10 61.9 °F 53.2 °F 29.91 in West 2.0 mph 4.0 mph 73 % 0.00 in 0.00 W/m2
22:15 61.9 °F 52.8 °F 29.91 in Calm     72 % 0.00 in 0.00 W/m2
22:20 61.9 °F 52.8 °F 29.91 in Calm     72 % 0.00 in 0.00 W/m2
22:25 61.9 °F 52.8 °F 29.91 in Calm     72 % 0.00 in 0.00 W/m2
22:30 61.9 °F 52.8 °F 29.91 in Calm     72 % 0.00 in 0.00 W/m2
22:35 61.7 °F 53.0 °F 29.90 in Calm     73 % 0.00 in 0.00 W/m2
22:40 61.6 °F 52.9 °F 29.90 in Calm   1.0 mph 73 % 0.00 in 0.00 W/m2
22:45 61.4 °F 52.7 °F 29.91 in West 3.0 mph 3.0 mph 73 % 0.00 in 0.00 W/m2
22:50 61.3 °F 52.6 °F 29.90 in West 1.0 mph 4.0 mph 73 % 0.00 in 0.00 W/m2
22:55 61.2 °F 52.5 °F 29.90 in Calm   3.0 mph 73 % 0.00 in 0.00 W/m2
23:00 61.1 °F 52.4 °F 29.90 in Calm   2.0 mph 73 % 0.00 in 0.00 W/m2
23:05 61.1 °F 52.4 °F 29.90 in Calm     73 % 0.00 in 0.00 W/m2
23:10 61.1 °F 52.4 °F 29.90 in Calm   1.0 mph 73 % 0.00 in 0.00 W/m2
23:15 61.1 °F 52.4 °F 29.90 in Calm   1.0 mph 73 % 0.00 in 0.00 W/m2
23:20 61.1 °F 52.4 °F 29.90 in Calm   4.0 mph 73 % 0.00 in 0.00 W/m2
23:25 61.1 °F 52.4 °F 29.90 in West 2.0 mph 3.0 mph 73 % 0.00 in 0.00 W/m2
23:30 61.1 °F 52.4 °F 29.90 in Calm   5.0 mph 73 % 0.00 in 0.00 W/m2
23:35 61.1 °F 52.4 °F 29.90 in West 5.0 mph 6.0 mph 73 % 0.00 in 0.00 W/m2
23:40 61.0 °F 52.3 °F 29.90 in West 2.0 mph 4.0 mph 73 % 0.00 in 0.00 W/m2
23:45 60.9 °F 52.2 °F 29.89 in West 2.0 mph 5.0 mph 73 % 0.00 in 0.00 W/m2
23:50 60.8 °F 52.5 °F 29.89 in Calm   5.0 mph 74 % 0.00 in 0.00 W/m2
23:55 60.8 °F 52.5 °F 29.89 in West 2.0 mph 7.0 mph 74 % 0.00 in 0.00 W/m2
Juneau County Weather
Compliments of Weather Underground - 4.5 mb
 WU-history PHP script courtesy of   Juneau County Weather.
powered by Cumulus v1.9.3 (1059)
Ambient Weather VWS v14.00
Top Contact Website Map Copyright © 2007 - 2018 Foresthillweather.com Never base important decisions on this or any weather information obtained from the Internet